createdAt,value
2017-10-12T00:00:13.036Z,15.5
2017-10-12T00:01:13.027Z,15.53
2017-10-12T00:02:13.028Z,15.53
2017-10-12T00:03:13.020Z,15.51
2017-10-12T00:04:12.680Z,15.51
2017-10-12T00:05:13.008Z,15.51
2017-10-12T00:06:13.000Z,15.53
2017-10-12T00:07:12.663Z,15.53
2017-10-12T00:08:12.995Z,15.5
2017-10-12T00:09:12.989Z,15.51
2017-10-12T00:10:12.983Z,15.53
2017-10-12T00:11:12.970Z,15.5
2017-10-12T00:12:12.968Z,15.54
2017-10-12T00:13:12.962Z,15.54
2017-10-12T00:14:12.960Z,15.5
2017-10-12T00:15:12.950Z,15.53
2017-10-12T00:16:12.619Z,15.56
2017-10-12T00:17:12.935Z,15.54
2017-10-12T00:18:12.930Z,15.51
2017-10-12T00:19:12.594Z,15.56
2017-10-12T00:20:12.916Z,15.54
2017-10-12T00:21:12.923Z,15.51
2017-10-12T00:22:12.576Z,15.49
2017-10-12T00:23:12.902Z,15.41
2017-10-12T00:24:12.561Z,15.5
2017-10-12T00:25:12.892Z,15.41
2017-10-12T00:26:12.891Z,15.39
2017-10-12T00:27:12.546Z,15.44
2017-10-12T00:28:12.883Z,15.43
2017-10-12T00:29:12.874Z,15.43
2017-10-12T00:30:12.872Z,15.54
2017-10-12T00:31:12.851Z,15.56
2017-10-12T00:32:12.851Z,15.54
2017-10-12T00:33:12.510Z,15.49
2017-10-12T00:34:12.837Z,15.44
2017-10-12T00:35:12.839Z,15.49
2017-10-12T00:36:12.498Z,15.43
2017-10-12T00:37:12.822Z,15.44
2017-10-12T00:38:12.820Z,15.51
2017-10-12T00:39:12.807Z,15.54
2017-10-12T00:40:12.466Z,15.51
2017-10-12T00:41:12.794Z,15.5
2017-10-12T00:42:12.126Z,15.5
2017-10-12T00:43:12.788Z,15.53
2017-10-12T00:44:12.445Z,15.51
2017-10-12T00:45:12.439Z,15.49
2017-10-12T00:46:12.772Z,15.5
2017-10-12T00:47:12.757Z,15.51
2017-10-12T00:48:12.757Z,15.5
2017-10-12T00:49:12.753Z,15.53
2017-10-12T00:50:12.410Z,15.47
2017-10-12T00:51:12.736Z,15.49
2017-10-12T00:52:12.393Z,15.51
2017-10-12T00:53:12.754Z,15.56
2017-10-12T00:54:12.717Z,15.51
2017-10-12T00:55:12.713Z,15.57
2017-10-12T00:56:12.377Z,15.54
2017-10-12T00:57:12.702Z,15.53
2017-10-12T00:58:12.696Z,15.49
2017-10-12T00:59:12.029Z,15.43
2017-10-12T01:00:12.353Z,15.51
2017-10-12T01:01:12.689Z,15.43
2017-10-12T01:02:12.924Z,15.54
2017-10-12T01:03:12.666Z,15.41
2017-10-12T01:04:12.666Z,15.44
2017-10-12T01:05:12.658Z,15.47
2017-10-12T01:06:12.649Z,15.38
2017-10-12T01:07:12.643Z,15.47
2017-10-12T01:08:12.315Z,15.49
2017-10-12T01:09:12.637Z,15.46
2017-10-12T01:10:12.294Z,15.5
2017-10-12T01:11:12.630Z,15.44
2017-10-12T01:12:12.614Z,15.41
2017-10-12T01:13:12.277Z,15.46
2017-10-12T01:14:12.266Z,15.49
2017-10-12T01:15:12.264Z,15.44
2017-10-12T01:16:12.599Z,15.38
2017-10-12T01:17:12.581Z,15.46
2017-10-12T01:18:12.588Z,15.44
2017-10-12T01:19:12.576Z,15.43
2017-10-12T01:20:12.574Z,15.47
2017-10-12T01:21:12.559Z,15.5
2017-10-12T01:22:12.573Z,15.39
2017-10-12T01:23:12.553Z,15.38
2017-10-12T01:24:12.543Z,15.36
2017-10-12T01:25:12.542Z,15.34
2017-10-12T01:26:12.562Z,15.43
2017-10-12T01:27:12.189Z,15.35
2017-10-12T01:28:12.188Z,15.47
2017-10-12T01:29:12.513Z,15.41
2017-10-12T01:30:12.505Z,15.44
2017-10-12T01:31:12.498Z,15.44
2017-10-12T01:32:12.494Z,15.31
2017-10-12T01:33:12.160Z,15.38
2017-10-12T01:34:12.482Z,15.35
2017-10-12T01:35:12.476Z,15.25
2017-10-12T01:36:12.139Z,15.19
2017-10-12T01:37:12.465Z,15.17
2017-10-12T01:38:12.464Z,15.09
2017-10-12T01:39:12.454Z,14.98
2017-10-12T01:40:12.119Z,15.03
2017-10-12T01:41:12.453Z,14.98
2017-10-12T01:42:12.110Z,14.91
2017-10-12T01:43:12.427Z,14.84
2017-10-12T01:44:12.100Z,14.78
2017-10-12T01:45:12.417Z,14.75
2017-10-12T01:46:12.412Z,14.64
2017-10-12T01:47:12.072Z,14.62
2017-10-12T01:48:12.398Z,14.54
2017-10-12T01:49:12.392Z,14.47
2017-10-12T01:50:12.061Z,14.46
2017-10-12T01:51:12.379Z,14.35
2017-10-12T01:52:12.041Z,14.22
2017-10-12T01:53:12.373Z,14.27
2017-10-12T01:54:12.363Z,14.24
2017-10-12T01:55:12.362Z,14.28
2017-10-12T01:56:11.685Z,14.22
2017-10-12T01:57:12.343Z,14.21
2017-10-12T01:58:12.334Z,14.1
2017-10-12T01:59:12.331Z,14.17
2017-10-12T02:00:11.992Z,14.07
2017-10-12T02:01:12.315Z,14.04
2017-10-12T02:02:12.313Z,14.06
2017-10-12T02:03:12.310Z,14.04
2017-10-12T02:04:12.297Z,14
2017-10-12T02:05:11.959Z,14.03
2017-10-12T02:06:12.292Z,13.99
2017-10-12T02:07:12.275Z,13.96
2017-10-12T02:08:12.266Z,13.89
2017-10-12T02:09:11.934Z,13.89
2017-10-12T02:10:11.923Z,13.84
2017-10-12T02:11:11.917Z,13.81
2017-10-12T02:12:11.910Z,13.79
2017-10-12T02:13:12.244Z,13.77
2017-10-12T02:14:12.226Z,13.7
2017-10-12T02:15:12.223Z,13.73
2017-10-12T02:16:11.885Z,13.6
2017-10-12T02:17:11.884Z,13.64
2017-10-12T02:18:12.198Z,13.63
2017-10-12T02:19:12.194Z,13.64
2017-10-12T02:20:12.199Z,13.63
2017-10-12T02:21:11.853Z,13.54
2017-10-12T02:22:11.848Z,13.48
2017-10-12T02:23:12.166Z,13.55
2017-10-12T02:24:12.159Z,13.42
2017-10-12T02:25:12.156Z,13.45
2017-10-12T02:26:12.142Z,13.39
2017-10-12T02:27:12.139Z,13.41
2017-10-12T02:28:12.137Z,13.42
2017-10-12T02:29:12.123Z,13.28
2017-10-12T02:30:12.120Z,13.36
2017-10-12T02:31:12.122Z,13.22
2017-10-12T02:32:11.782Z,13.33
2017-10-12T02:33:12.098Z,13.28
2017-10-12T02:34:11.757Z,13.22
2017-10-12T02:35:12.082Z,13.19
2017-10-12T02:36:12.079Z,13.17
2017-10-12T02:37:11.738Z,13.2
2017-10-12T02:38:12.065Z,13.14
2017-10-12T02:39:12.057Z,13.19
2017-10-12T02:40:12.053Z,13.15
2017-10-12T02:41:12.040Z,13.15
2017-10-12T02:42:12.043Z,13.12
2017-10-12T02:43:12.045Z,13.11
2017-10-12T02:44:12.016Z,13.11
2017-10-12T02:45:12.011Z,13.05
2017-10-12T02:46:12.028Z,13.01
2017-10-12T02:47:12.001Z,13
2017-10-12T02:48:11.661Z,13.05
2017-10-12T02:49:11.980Z,13
2017-10-12T02:50:11.987Z,13.01
2017-10-12T02:51:11.969Z,13.04
2017-10-12T02:52:11.631Z,12.92
2017-10-12T02:53:11.975Z,13.03
2017-10-12T02:54:11.943Z,13.03
2017-10-12T02:55:11.937Z,12.95
2017-10-12T02:56:11.597Z,13.01
2017-10-12T02:57:11.941Z,12.93
2017-10-12T02:58:11.913Z,13.01
2017-10-12T02:59:11.912Z,12.95
2017-10-12T03:00:11.571Z,13.03
2017-10-12T03:01:11.560Z,13.03
2017-10-12T03:02:11.886Z,12.97
2017-10-12T03:03:11.545Z,13.05
2017-10-12T03:04:11.884Z,13.01
2017-10-12T03:05:11.540Z,13.07
2017-10-12T03:06:11.853Z,13.08
2017-10-12T03:07:11.852Z,13.1
2017-10-12T03:08:11.181Z,13.14
2017-10-12T03:09:11.503Z,13.14
2017-10-12T03:10:11.830Z,13.15
2017-10-12T03:11:11.815Z,13.22
2017-10-12T03:12:11.815Z,13.32
2017-10-12T03:13:11.807Z,13.39
2017-10-12T03:14:11.794Z,13.38
2017-10-12T03:15:11.795Z,13.46
2017-10-12T03:16:11.787Z,13.49
2017-10-12T03:17:11.774Z,13.55
2017-10-12T03:18:11.438Z,13.55
2017-10-12T03:19:11.761Z,13.54
2017-10-12T03:20:11.760Z,13.59
2017-10-12T03:21:11.741Z,13.59
2017-10-12T03:22:11.742Z,13.55
2017-10-12T03:23:11.402Z,13.6
2017-10-12T03:24:11.729Z,13.57
2017-10-12T03:25:11.720Z,13.52
2017-10-12T03:26:11.712Z,13.59
2017-10-12T03:27:11.374Z,13.54
2017-10-12T03:28:11.698Z,13.62
2017-10-12T03:29:11.706Z,13.59
2017-10-12T03:30:11.686Z,13.62
2017-10-12T03:31:11.681Z,13.55
2017-10-12T03:32:11.334Z,13.64
2017-10-12T03:33:11.662Z,13.57
2017-10-12T03:34:11.656Z,13.66
2017-10-12T03:35:11.652Z,13.66
2017-10-12T03:36:11.306Z,13.67
2017-10-12T03:37:11.630Z,13.81
2017-10-12T03:38:11.629Z,13.77
2017-10-12T03:39:11.618Z,13.85
2017-10-12T03:40:11.609Z,13.81
2017-10-12T03:41:11.627Z,13.91
2017-10-12T03:42:11.597Z,13.91
2017-10-12T03:43:11.589Z,13.89
2017-10-12T03:44:11.589Z,13.88
2017-10-12T03:45:11.577Z,14.02
2017-10-12T03:46:11.567Z,14
2017-10-12T03:47:11.566Z,14
2017-10-12T03:48:11.560Z,14.1
2017-10-12T03:49:11.551Z,14.04
2017-10-12T03:50:11.539Z,14.06
2017-10-12T03:51:11.553Z,14.04
2017-10-12T03:52:11.524Z,14.06
2017-10-12T03:53:11.524Z,14.14
2017-10-12T03:54:11.511Z,14.21
2017-10-12T03:55:11.509Z,14.14
2017-10-12T03:56:11.192Z,14.17
2017-10-12T03:57:11.497Z,14.25
2017-10-12T03:58:11.162Z,14.22
2017-10-12T03:59:11.488Z,14.22
2017-10-12T04:00:11.138Z,14.2
2017-10-12T04:01:11.133Z,14.21
2017-10-12T04:02:11.126Z,14.2
2017-10-12T04:03:11.457Z,14.18
2017-10-12T04:04:10.785Z,14.17
2017-10-12T04:05:11.446Z,14.21
2017-10-12T04:06:11.102Z,14.18
2017-10-12T04:07:11.423Z,14.22
2017-10-12T04:08:11.433Z,14.2
2017-10-12T04:09:11.084Z,14.2
2017-10-12T04:10:11.077Z,14.18
2017-10-12T04:11:11.070Z,14.21
2017-10-12T04:12:11.390Z,14.27
2017-10-12T04:13:11.399Z,14.25
2017-10-12T04:14:11.048Z,14.33
2017-10-12T04:15:11.381Z,14.28
2017-10-12T04:16:11.370Z,14.27
2017-10-12T04:17:11.361Z,14.24
2017-10-12T04:18:11.353Z,14.4
2017-10-12T04:19:11.344Z,14.36
2017-10-12T04:20:11.341Z,14.52
2017-10-12T04:21:11.331Z,14.45
2017-10-12T04:22:11.326Z,14.6
2017-10-12T04:23:11.318Z,14.54
2017-10-12T04:24:10.980Z,14.47
2017-10-12T04:25:11.306Z,14.52
2017-10-12T04:26:11.298Z,14.69
2017-10-12T04:27:11.293Z,14.68
2017-10-12T04:28:11.284Z,14.73
2017-10-12T04:29:11.278Z,14.75
2017-10-12T04:30:11.303Z,14.75
2017-10-12T04:31:11.266Z,14.78
2017-10-12T04:32:11.263Z,14.81
2017-10-12T04:33:11.251Z,14.86
2017-10-12T04:34:11.248Z,14.83
2017-10-12T04:35:11.236Z,14.83
2017-10-12T04:36:11.232Z,14.84
2017-10-12T04:37:10.896Z,14.88
2017-10-12T04:38:11.221Z,14.86
2017-10-12T04:39:11.225Z,14.88
2017-10-12T04:40:11.210Z,14.94
2017-10-12T04:41:11.227Z,14.86
2017-10-12T04:42:11.200Z,14.95
2017-10-12T04:43:11.208Z,14.96
2017-10-12T04:44:11.189Z,14.95
2017-10-12T04:45:10.844Z,15.07
2017-10-12T04:46:11.175Z,15.02
2017-10-12T04:47:11.163Z,15.09
2017-10-12T04:48:11.160Z,15.02
2017-10-12T04:49:11.165Z,15.07
2017-10-12T04:50:10.812Z,15.01
2017-10-12T04:51:11.144Z,15.03
2017-10-12T04:52:10.797Z,15.14
2017-10-12T04:53:10.797Z,15.09
2017-10-12T04:54:11.133Z,15.16
2017-10-12T04:55:11.113Z,15.16
2017-10-12T04:56:10.776Z,15.14
2017-10-12T04:57:11.100Z,15.23
2017-10-12T04:58:11.095Z,15.2
2017-10-12T04:59:11.090Z,15.19
2017-10-12T05:00:11.082Z,15.27
2017-10-12T05:01:11.080Z,15.29
2017-10-12T05:02:11.073Z,15.23
2017-10-12T05:03:11.062Z,15.25
2017-10-12T05:04:11.056Z,15.21
2017-10-12T05:05:11.060Z,15.32
2017-10-12T05:06:11.047Z,15.36
2017-10-12T05:07:11.037Z,15.25
2017-10-12T05:08:10.370Z,15.32
2017-10-12T05:09:10.692Z,15.31
2017-10-12T05:10:11.023Z,15.38
2017-10-12T05:11:11.014Z,15.34
2017-10-12T05:12:11.010Z,15.35
2017-10-12T05:13:10.669Z,15.28
2017-10-12T05:14:10.674Z,15.29
2017-10-12T05:15:10.988Z,15.34
2017-10-12T05:16:10.651Z,15.41
2017-10-12T05:17:11.009Z,15.23
2017-10-12T05:18:10.971Z,15.34
2017-10-12T05:19:10.963Z,15.31
2017-10-12T05:20:10.956Z,15.36
2017-10-12T05:21:10.960Z,15.27
2017-10-12T05:22:10.950Z,15.23
2017-10-12T05:23:10.942Z,15.2
2017-10-12T05:24:10.614Z,15.14
2017-10-12T05:25:10.933Z,15.13
2017-10-12T05:26:10.931Z,15.11
2017-10-12T05:27:10.915Z,15.01
2017-10-12T05:28:10.935Z,15.02
2017-10-12T05:29:10.574Z,15.02
2017-10-12T05:30:10.899Z,15.03
2017-10-12T05:31:10.887Z,15.07
2017-10-12T05:32:10.557Z,15.06
2017-10-12T05:33:10.877Z,15.07
2017-10-12T05:34:10.870Z,15.07
2017-10-12T05:35:10.540Z,15.01
2017-10-12T05:36:10.533Z,15.06
2017-10-12T05:37:10.855Z,15.06
2017-10-12T05:38:10.857Z,15.03
2017-10-12T05:39:10.847Z,15.03
2017-10-12T05:40:10.850Z,14.99
2017-10-12T05:41:10.502Z,15.03
2017-10-12T05:42:10.852Z,15.07
2017-10-12T05:43:10.818Z,15.09
2017-10-12T05:44:10.480Z,15.1
2017-10-12T05:45:10.806Z,15.06
2017-10-12T05:46:10.805Z,14.98
2017-10-12T05:47:10.795Z,15.06
2017-10-12T05:48:10.787Z,15.02
2017-10-12T05:49:10.792Z,15.19
2017-10-12T05:50:10.776Z,15.1
2017-10-12T05:51:10.770Z,15.14
2017-10-12T05:52:10.765Z,15.23
2017-10-12T05:53:10.757Z,15.25
2017-10-12T05:54:10.421Z,15.25
2017-10-12T05:55:10.754Z,15.19
2017-10-12T05:56:10.747Z,15.25
2017-10-12T05:57:10.399Z,15.34
2017-10-12T05:58:10.395Z,15.29
2017-10-12T05:59:10.727Z,15.34
2017-10-12T06:00:10.381Z,15.38
2017-10-12T06:01:10.706Z,15.46
2017-10-12T06:02:10.710Z,15.43
2017-10-12T06:03:10.694Z,15.47
2017-10-12T06:04:10.689Z,15.43
2017-10-12T06:05:10.685Z,15.44
2017-10-12T06:06:10.681Z,15.47
2017-10-12T06:07:10.674Z,15.5
2017-10-12T06:08:10.663Z,15.51
2017-10-12T06:09:10.326Z,15.59
2017-10-12T06:10:10.321Z,15.53
2017-10-12T06:11:10.660Z,15.6
2017-10-12T06:12:10.653Z,15.71
2017-10-12T06:13:10.637Z,15.76
2017-10-12T06:14:10.304Z,15.75
2017-10-12T06:15:10.294Z,15.83
2017-10-12T06:16:10.286Z,15.87
2017-10-12T06:17:10.280Z,15.96
2017-10-12T06:18:10.274Z,16.04
2017-10-12T06:19:10.611Z,16.01
2017-10-12T06:20:10.267Z,15.97
2017-10-12T06:21:10.269Z,16.07
2017-10-12T06:22:10.253Z,16.07
2017-10-12T06:23:10.587Z,16.01
2017-10-12T06:24:10.242Z,16.05
2017-10-12T06:25:10.575Z,16.12
2017-10-12T06:26:10.231Z,16.09
2017-10-12T06:27:10.566Z,16.09
2017-10-12T06:28:10.552Z,16.08
2017-10-12T06:29:10.213Z,16.09
2017-10-12T06:30:10.540Z,15.94
2017-10-12T06:31:10.543Z,16.01
2017-10-12T06:32:10.532Z,16.11
2017-10-12T06:33:10.189Z,15.93
2017-10-12T06:34:10.524Z,15.96
2017-10-12T06:35:10.180Z,15.96
2017-10-12T06:36:10.510Z,15.94
2017-10-12T06:37:10.504Z,16.02
2017-10-12T06:38:10.492Z,15.94
2017-10-12T06:39:10.155Z,15.96
2017-10-12T06:40:10.496Z,15.93
2017-10-12T06:41:10.481Z,16.07
2017-10-12T06:42:10.472Z,16.09
2017-10-12T06:43:10.471Z,16.11
2017-10-12T06:44:10.478Z,16.02
2017-10-12T06:45:10.461Z,16.09
2017-10-12T06:46:10.119Z,16.09
2017-10-12T06:47:10.444Z,16.11
2017-10-12T06:48:10.104Z,16.21
2017-10-12T06:49:10.434Z,16.3
2017-10-12T06:50:09.765Z,16.25
2017-10-12T06:51:10.424Z,16.28
2017-10-12T06:52:10.427Z,16.34
2017-10-12T06:53:10.410Z,16.31
2017-10-12T06:54:10.073Z,16.35
2017-10-12T06:55:10.399Z,16.42
2017-10-12T06:56:10.401Z,16.43
2017-10-12T06:57:10.393Z,16.46
2017-10-12T06:58:10.415Z,16.49
2017-10-12T06:59:10.379Z,16.58
2017-10-12T07:00:10.394Z,16.64
2017-10-12T07:01:10.035Z,16.61
2017-10-12T07:02:10.367Z,16.5
2017-10-12T07:03:10.029Z,16.61
2017-10-12T07:04:10.352Z,16.64
2017-10-12T07:05:10.351Z,16.63
2017-10-12T07:06:10.346Z,16.67
2017-10-12T07:07:10.027Z,16.76
2017-10-12T07:08:10.329Z,16.76
2017-10-12T07:09:10.334Z,16.78
2017-10-12T07:10:09.660Z,16.85
2017-10-12T07:11:10.316Z,16.78
2017-10-12T07:12:09.982Z,16.88
2017-10-12T07:13:09.974Z,16.89
2017-10-12T07:14:10.308Z,16.91
2017-10-12T07:15:10.304Z,16.85
2017-10-12T07:16:10.301Z,16.97
2017-10-12T07:17:10.294Z,16.93
2017-10-12T07:18:10.284Z,16.97
2017-10-12T07:19:10.297Z,16.98
2017-10-12T07:20:09.950Z,16.96
2017-10-12T07:21:09.943Z,17.03
2017-10-12T07:22:10.267Z,16.98
2017-10-12T07:23:09.928Z,17.08
2017-10-12T07:24:09.923Z,17.07
2017-10-12T07:25:10.270Z,17.12
2017-10-12T07:26:09.916Z,17.06
2017-10-12T07:27:09.915Z,16.97
2017-10-12T07:28:10.253Z,16.93
2017-10-12T07:29:09.898Z,16.81
2017-10-12T07:30:09.898Z,16.73
2017-10-12T07:31:09.560Z,16.64
2017-10-12T07:32:09.885Z,16.52
2017-10-12T07:33:10.216Z,16.42
2017-10-12T07:34:09.876Z,16.24
2017-10-12T07:35:10.201Z,16.15
2017-10-12T07:36:09.863Z,16.14
2017-10-12T07:37:10.200Z,16.11
2017-10-12T07:38:09.853Z,15.93
2017-10-12T07:39:09.853Z,15.97
2017-10-12T07:40:09.844Z,15.96
2017-10-12T07:41:10.172Z,16.01
2017-10-12T07:42:10.167Z,15.97
2017-10-12T07:43:10.163Z,16.05
2017-10-12T07:44:10.152Z,16.07
2017-10-12T07:45:10.155Z,16.07
2017-10-12T07:46:10.351Z,16.14
2017-10-12T07:47:10.138Z,16.08
2017-10-12T07:48:09.806Z,16.2
2017-10-12T07:49:10.361Z,16.3
2017-10-12T07:50:10.125Z,16.21
2017-10-12T07:51:10.126Z,16.35
2017-10-12T07:52:09.449Z,16.41
2017-10-12T07:53:09.446Z,16.43
2017-10-12T07:54:10.103Z,16.56
2017-10-12T07:55:09.969Z,16.73
2017-10-12T07:56:09.760Z,16.78
2017-10-12T07:57:10.102Z,16.93
2017-10-12T07:58:09.761Z,16.96
2017-10-12T07:59:10.082Z,17
2017-10-12T08:00:10.085Z,17
2017-10-12T08:01:10.069Z,17.26
2017-10-12T08:02:09.730Z,17.19
2017-10-12T08:03:10.057Z,17.4
2017-10-12T08:04:10.059Z,17.56
2017-10-12T08:05:09.717Z,17.71
2017-10-12T08:06:09.717Z,17.79
2017-10-12T08:07:09.708Z,18
2017-10-12T08:08:10.035Z,18.12
2017-10-12T08:09:10.037Z,18.27
2017-10-12T08:10:10.030Z,18.26
2017-10-12T08:11:09.896Z,18.42
2017-10-12T08:12:10.027Z,18.52
2017-10-12T08:13:10.023Z,18.54
2017-10-12T08:14:10.013Z,18.52
2017-10-12T08:15:09.677Z,18.62
2017-10-12T08:16:09.673Z,18.54
2017-10-12T08:17:09.339Z,18.6
2017-10-12T08:18:09.336Z,18.6
2017-10-12T08:19:09.996Z,18.65
2017-10-12T08:20:10.025Z,18.76
2017-10-12T08:21:09.660Z,18.84
2017-10-12T08:22:09.992Z,18.84
2017-10-12T08:23:09.982Z,18.94
2017-10-12T08:24:09.999Z,19
2017-10-12T08:25:09.973Z,19.02
2017-10-12T08:26:09.981Z,19.11
2017-10-12T08:27:09.974Z,19.19
2017-10-12T08:28:09.980Z,19.28
2017-10-12T08:29:09.631Z,19.29
2017-10-12T08:30:09.964Z,19.29
2017-10-12T08:31:09.627Z,19.19
2017-10-12T08:32:09.624Z,19.06
2017-10-12T08:33:09.624Z,18.99
2017-10-12T08:34:09.619Z,19
2017-10-12T08:35:09.945Z,19.1
2017-10-12T08:36:09.957Z,19.23
2017-10-12T08:37:09.935Z,19.29
2017-10-12T08:38:09.936Z,19.36
2017-10-12T08:39:09.932Z,19.39
2017-10-12T08:40:09.929Z,19.47
2017-10-12T08:41:09.929Z,19.46
2017-10-12T08:42:09.927Z,19.41
2017-10-12T08:43:09.922Z,19.41
2017-10-12T08:44:09.920Z,19.32
2017-10-12T08:45:09.916Z,19.23
2017-10-12T08:46:09.914Z,19.18
2017-10-12T08:47:09.909Z,19.16
2017-10-12T08:48:09.242Z,19.11
2017-10-12T08:49:09.580Z,19.13
2017-10-12T08:50:09.569Z,19.22
2017-10-12T08:51:09.895Z,19.32
2017-10-12T08:52:09.278Z,19.47
2017-10-12T08:53:09.561Z,19.54
2017-10-12T08:54:09.887Z,19.54
2017-10-12T08:55:09.894Z,19.54
2017-10-12T08:56:09.554Z,19.59
2017-10-12T08:57:09.548Z,19.68
2017-10-12T08:58:09.883Z,19.68
2017-10-12T08:59:09.544Z,19.66
2017-10-12T09:00:09.207Z,19.66
2017-10-12T09:01:09.869Z,19.8
2017-10-12T09:02:09.873Z,19.73
2017-10-12T09:03:09.862Z,19.81
2017-10-12T09:04:09.864Z,19.94
2017-10-12T09:05:09.196Z,19.94
2017-10-12T09:06:09.527Z,20.03
2017-10-12T09:07:09.855Z,20.1
2017-10-12T09:08:09.854Z,20.05
2017-10-12T09:09:09.519Z,20.06
2017-10-12T09:10:09.183Z,20.16
2017-10-12T09:11:09.849Z,20.14
2017-10-12T09:12:09.530Z,20.26
2017-10-12T09:13:09.839Z,20.23
2017-10-12T09:14:09.510Z,20.26
2017-10-12T09:15:09.500Z,20.31
2017-10-12T09:16:09.838Z,20.32
2017-10-12T09:17:09.834Z,20.23
2017-10-12T09:18:09.834Z,20.31
2017-10-12T09:19:09.494Z,20.29
2017-10-12T09:20:09.825Z,20.31
2017-10-12T09:21:09.493Z,20.26
2017-10-12T09:22:09.822Z,20.23
2017-10-12T09:23:09.820Z,20.13
2017-10-12T09:24:09.826Z,20.13
2017-10-12T09:25:09.812Z,20.05
2017-10-12T09:26:09.148Z,19.94
2017-10-12T09:27:09.814Z,19.84
2017-10-12T09:28:10.009Z,19.76
2017-10-12T09:29:09.472Z,19.63
2017-10-12T09:30:09.811Z,19.61
2017-10-12T09:31:09.821Z,19.55
2017-10-12T09:32:09.472Z,19.47
2017-10-12T09:33:10.196Z,19.51
2017-10-12T09:34:10.021Z,19.63
2017-10-12T09:35:09.787Z,19.73
2017-10-12T09:36:09.788Z,19.83
2017-10-12T09:37:09.880Z,19.95
2017-10-12T09:38:09.449Z,19.91
2017-10-12T09:39:09.781Z,19.96
2017-10-12T09:40:09.445Z,19.92
2017-10-12T09:41:09.645Z,19.87
2017-10-12T09:42:09.976Z,19.86
2017-10-12T09:43:09.770Z,19.86
2017-10-12T09:44:09.436Z,19.88
2017-10-12T09:45:09.768Z,19.91
2017-10-12T09:46:09.429Z,19.91
2017-10-12T09:47:09.757Z,19.96
2017-10-12T09:48:09.425Z,19.95
2017-10-12T09:49:09.956Z,20.08
2017-10-12T09:50:09.421Z,20.08
2017-10-12T09:51:09.757Z,20.17
2017-10-12T09:52:09.745Z,20.33
2017-10-12T09:53:09.743Z,20.32
2017-10-12T09:54:09.413Z,20.35
2017-10-12T09:55:09.743Z,20.5
2017-10-12T09:56:09.401Z,20.58
2017-10-12T09:57:09.737Z,20.61
2017-10-12T09:58:09.399Z,20.76
2017-10-12T09:59:09.735Z,20.76
2017-10-12T10:00:09.406Z,20.88
2017-10-12T10:01:09.392Z,20.91
2017-10-12T10:02:09.396Z,20.99
2017-10-12T10:03:09.723Z,20.97
2017-10-12T10:04:09.390Z,21.03
2017-10-12T10:05:09.720Z,21.04
2017-10-12T10:06:09.715Z,20.94
2017-10-12T10:07:09.714Z,20.99
2017-10-12T10:08:09.715Z,20.94
2017-10-12T10:09:09.737Z,21.01
2017-10-12T10:10:09.708Z,20.91
2017-10-12T10:11:09.716Z,20.92
2017-10-12T10:12:09.711Z,20.92
2017-10-12T10:13:09.703Z,20.92
2017-10-12T10:14:09.709Z,20.98
2017-10-12T10:15:09.701Z,21.03
2017-10-12T10:16:09.367Z,21.06
2017-10-12T10:17:09.698Z,21.17
2017-10-12T10:18:09.700Z,21.1
2017-10-12T10:19:09.712Z,21.1
2017-10-12T10:20:09.695Z,21.07
2017-10-12T10:21:09.689Z,21.09
2017-10-12T10:22:09.694Z,21.04
2017-10-12T10:23:09.687Z,20.97
2017-10-12T10:24:09.686Z,21.09
2017-10-12T10:25:09.691Z,21.07
2017-10-12T10:26:09.347Z,21.1
2017-10-12T10:27:09.684Z,21.06
2017-10-12T10:28:09.348Z,21.09
2017-10-12T10:29:09.343Z,21.22
2017-10-12T10:30:09.351Z,21.31
2017-10-12T10:31:10.060Z,21.4
2017-10-12T10:32:09.340Z,21.43
2017-10-12T10:33:09.676Z,21.44
2017-10-12T10:34:09.012Z,21.58
2017-10-12T10:35:09.669Z,21.62
2017-10-12T10:36:09.671Z,21.68
2017-10-12T10:37:09.685Z,21.82
2017-10-12T10:38:09.669Z,21.77
2017-10-12T10:39:09.666Z,21.8
2017-10-12T10:40:09.667Z,21.92
2017-10-12T10:41:09.673Z,21.79
2017-10-12T10:42:09.660Z,21.71
2017-10-12T10:43:09.328Z,21.65
2017-10-12T10:44:09.690Z,21.61
2017-10-12T10:45:09.658Z,21.52
2017-10-12T10:46:09.681Z,21.49
2017-10-12T10:47:09.656Z,21.43
2017-10-12T10:48:09.677Z,21.34
2017-10-12T10:49:09.324Z,21.34
2017-10-12T10:50:09.681Z,21.19
2017-10-12T10:51:09.659Z,21.14
2017-10-12T10:52:09.316Z,21.07
2017-10-12T10:53:09.318Z,20.97
2017-10-12T10:54:09.648Z,20.89
2017-10-12T10:55:09.325Z,20.85
2017-10-12T10:56:09.647Z,20.8
2017-10-12T10:57:09.646Z,20.79
2017-10-12T10:58:09.313Z,20.66
2017-10-12T10:59:09.644Z,20.7
2017-10-12T11:00:09.638Z,20.69
2017-10-12T11:01:09.637Z,20.64
2017-10-12T11:02:09.305Z,20.62
2017-10-12T11:03:08.972Z,20.61
2017-10-12T11:04:09.298Z,20.5
2017-10-12T11:05:09.629Z,20.51
2017-10-12T11:06:09.296Z,20.41
2017-10-12T11:07:09.625Z,20.2
2017-10-12T11:08:09.306Z,20.31
2017-10-12T11:09:09.629Z,20.18
2017-10-12T11:10:09.619Z,20.06
2017-10-12T11:11:09.620Z,20.05
2017-10-12T11:12:09.618Z,20.01
2017-10-12T11:13:09.283Z,20.1
2017-10-12T11:14:09.608Z,19.99
2017-10-12T11:15:09.609Z,20.01
2017-10-12T11:16:09.622Z,20.08
2017-10-12T11:17:09.603Z,19.99
2017-10-12T11:18:09.602Z,20.11
2017-10-12T11:19:09.598Z,20.03
2017-10-12T11:20:09.595Z,20.03
2017-10-12T11:21:09.596Z,19.94
2017-10-12T11:22:09.594Z,19.76
2017-10-12T11:23:09.591Z,19.74
2017-10-12T11:24:09.608Z,19.66
2017-10-12T11:25:10.196Z,19.55
2017-10-12T11:26:09.588Z,19.51
2017-10-12T11:27:09.582Z,19.33
2017-10-12T11:28:09.582Z,19.32
2017-10-12T11:29:09.577Z,19.14
2017-10-12T11:30:09.572Z,19.08
2017-10-12T11:31:09.240Z,19.04
2017-10-12T11:32:09.565Z,19.07
2017-10-12T11:33:09.233Z,19.02
2017-10-12T11:34:08.899Z,19
2017-10-12T11:35:09.224Z,18.98
2017-10-12T11:36:09.220Z,19
2017-10-12T11:37:09.550Z,19.06
2017-10-12T11:38:09.426Z,18.91
2017-10-12T11:39:09.215Z,18.85
2017-10-12T11:40:09.214Z,18.78
2017-10-12T11:41:09.536Z,18.72
2017-10-12T11:42:09.204Z,18.7
2017-10-12T11:43:09.749Z,18.63
2017-10-12T11:44:08.861Z,18.75
2017-10-12T11:45:09.524Z,18.65
2017-10-12T11:46:09.189Z,18.7
2017-10-12T11:47:09.188Z,18.69
2017-10-12T11:48:09.566Z,18.58
2017-10-12T11:49:09.514Z,18.5
2017-10-12T11:50:09.535Z,18.45
2017-10-12T11:51:09.511Z,18.5
2017-10-12T11:52:08.837Z,18.39
2017-10-12T11:53:09.498Z,18.39
2017-10-12T11:54:09.494Z,18.32
2017-10-12T11:55:09.491Z,18.29
2017-10-12T11:56:09.493Z,18.33
2017-10-12T11:57:09.482Z,18.26
2017-10-12T11:58:09.150Z,18.29
2017-10-12T11:59:09.479Z,18.21
2017-10-12T12:00:09.167Z,18.29
2017-10-12T12:01:09.159Z,18.25
2017-10-12T12:02:09.466Z,18.2
2017-10-12T12:03:09.466Z,18.1
2017-10-12T12:04:09.461Z,18.15
2017-10-12T12:05:09.462Z,18.05
2017-10-12T12:06:09.456Z,18.05
2017-10-12T12:07:09.455Z,17.99
2017-10-12T12:08:08.782Z,17.97
2017-10-12T12:09:09.439Z,18
2017-10-12T12:10:08.773Z,17.9
2017-10-12T12:11:09.432Z,17.92
2017-10-12T12:12:09.433Z,17.95
2017-10-12T12:13:09.425Z,18.03
2017-10-12T12:14:09.084Z,18.02
2017-10-12T12:15:09.421Z,17.99
2017-10-12T12:16:09.079Z,18.02
2017-10-12T12:17:09.411Z,17.96
2017-10-12T12:18:09.082Z,17.97
2017-10-12T12:19:09.399Z,17.95
2017-10-12T12:20:09.393Z,18.03
2017-10-12T12:21:09.402Z,17.9
2017-10-12T12:22:09.057Z,17.93
2017-10-12T12:23:09.381Z,17.96
2017-10-12T12:24:08.718Z,18.03
2017-10-12T12:25:09.376Z,18.08
2017-10-12T12:26:09.041Z,18.08
2017-10-12T12:27:09.037Z,18.08
2017-10-12T12:28:09.368Z,18.27
2017-10-12T12:29:09.366Z,18.35
2017-10-12T12:30:09.375Z,18.48
2017-10-12T12:31:09.020Z,18.67
2017-10-12T12:32:09.358Z,18.81
2017-10-12T12:33:09.345Z,18.95
2017-10-12T12:34:09.007Z,18.95
2017-10-12T12:35:09.347Z,18.98
2017-10-12T12:36:08.672Z,19.02
2017-10-12T12:37:08.685Z,19.04
2017-10-12T12:38:08.998Z,19.04
2017-10-12T12:39:08.990Z,19
2017-10-12T12:40:08.987Z,19.04
2017-10-12T12:41:08.989Z,19.04
2017-10-12T12:42:08.996Z,18.98
2017-10-12T12:43:08.977Z,18.94
2017-10-12T12:44:08.973Z,18.92
2017-10-12T12:45:09.306Z,18.87
2017-10-12T12:46:09.306Z,18.81
2017-10-12T12:47:09.297Z,18.9
2017-10-12T12:48:08.969Z,18.84
2017-10-12T12:49:09.293Z,18.72
2017-10-12T12:50:09.288Z,18.58
2017-10-12T12:51:08.955Z,18.52
2017-10-12T12:52:09.286Z,18.51
2017-10-12T12:53:09.282Z,18.57
2017-10-12T12:54:09.276Z,18.48
2017-10-12T12:55:08.937Z,18.42